createdAt,value
2018-09-01T23:16:25.163Z,1023.65
2018-09-01T23:17:25.190Z,1023.56
2018-09-01T23:18:25.225Z,1023.6
2018-09-01T23:19:25.256Z,1023.57
2018-09-01T23:20:25.286Z,1023.59
2018-09-01T23:21:25.326Z,1023.56
2018-09-01T23:22:25.354Z,1023.6
2018-09-01T23:23:25.388Z,1023.63
2018-09-01T23:24:25.654Z,1023.62
2018-09-01T23:25:25.688Z,1023.63
2018-09-01T23:26:25.718Z,1023.64
2018-09-01T23:27:25.755Z,1023.62
2018-09-01T23:28:26.023Z,1023.69
2018-09-01T23:29:26.045Z,1023.68
2018-09-01T23:30:26.293Z,1023.68
2018-09-01T23:31:26.379Z,1023.72
2018-09-01T23:32:26.367Z,1023.66
2018-09-01T23:33:26.810Z,1023.67
2018-09-01T23:34:26.778Z,1023.66
2018-09-01T23:35:27.023Z,1023.69
2018-09-01T23:36:27.056Z,1023.68
2018-09-01T23:37:27.090Z,1023.72
2018-09-01T23:38:27.123Z,1023.7
2018-09-01T23:39:27.386Z,1023.76
2018-09-01T23:40:27.423Z,1023.72
2018-09-01T23:41:27.457Z,1023.8
2018-09-01T23:42:27.490Z,1023.78
2018-09-01T23:43:27.521Z,1023.76
2018-09-01T23:44:27.809Z,1023.74
2018-09-01T23:45:27.836Z,1023.83
2018-09-01T23:46:27.876Z,1023.76
2018-09-01T23:47:27.901Z,1023.79
2018-09-01T23:48:28.138Z,1023.78
2018-09-01T23:49:28.167Z,1023.75
2018-09-01T23:50:28.208Z,1023.78
2018-09-01T23:51:28.233Z,1023.76
2018-09-01T23:52:28.271Z,1023.79
2018-09-01T23:53:28.490Z,1023.79
2018-09-01T23:54:28.527Z,1023.75
2018-09-01T23:55:28.556Z,1023.8
2018-09-01T23:56:28.592Z,1023.77
2018-09-01T23:57:28.627Z,1023.8
2018-09-01T23:58:28.657Z,1023.76
2018-09-01T23:59:28.701Z,1023.75
